CheckWX is a tool to help pilots better visualize weather data.  It is not intended as a substitute for an official pre-flight weather briefing.

15:42:53 UTC

LLHA METAR
Haifa International Airport
Haifa, Israel
Current

53 mins ago

LLHA 051450Z 24016KT 9000 FEW017 20/14 Q1012
Observed
Apr-5 @ 14:50 UTC
Wind
  • 240° at 16 KTS
Visibility
8996 meters
Flight Rules
VFR
Cloud Levels
  • Few at 1,700' AGL
Temperature
20°C / 68°F
Dewpoint
14°C / 57°F
Humidity
69%
Altimeter
29.88" Hg
Pressure
1011.92 hPa
Previous

2 hours ago

LLHA 051350Z 24011KT 200V260 9000 NSC 22/14 Q1012
Observed
Apr-5 @ 13:50 UTC
Wind
  • 240° at 11 KTS
Visibility
8996 meters
Flight Rules
VFR
Cloud Levels
  • Clear skies
Temperature
22°C / 72°F
Dewpoint
14°C / 57°F
Humidity
61%
Altimeter
29.88" Hg
Pressure
1011.92 hPa
Previous

3 hours ago

LLHA 051250Z 25013KT 9000 FEW031 23/14 Q1011
Observed
Apr-5 @ 12:50 UTC
Wind
  • 250° at 13 KTS
Visibility
8996 meters
Flight Rules
VFR
Cloud Levels
  • Few at 3,100' AGL
Temperature
23°C / 73°F
Dewpoint
14°C / 57°F
Humidity
57%
Altimeter
29.85" Hg
Pressure
1010.92 hPa